createdAt,value
2019-02-11T00:02:48.733Z,98665.80
2019-02-11T00:07:51.634Z,98663.78
2019-02-11T00:12:54.095Z,98675.40
2019-02-11T00:17:57.377Z,98690.67
2019-02-11T00:22:59.663Z,98694.45
2019-02-11T00:28:02.540Z,98716.59
2019-02-11T00:33:04.793Z,98702.06
2019-02-11T00:38:07.526Z,98720.03
2019-02-11T00:43:18.705Z,98731.59
2019-02-11T00:48:15.545Z,98751.03
2019-02-11T00:53:18.093Z,98738.47
2019-02-11T00:58:20.526Z,98750.46
2019-02-11T01:03:22.779Z,98772.66
2019-02-11T01:08:25.033Z,98780.08
2019-02-11T01:13:28.180Z,98786.28
2019-02-11T01:18:31.246Z,98791.45
2019-02-11T01:23:34.078Z,98805.79
2019-02-11T01:28:37.460Z,98820.56
2019-02-11T01:33:40.772Z,98834.09
2019-02-11T01:38:43.524Z,98838.50
2019-02-11T01:43:45.827Z,98858.39
2019-02-11T01:48:48.837Z,98866.56
2019-02-11T01:53:51.825Z,98895.34
2019-02-11T01:58:54.893Z,98891.98
2019-02-11T02:03:57.933Z,98903.70
2019-02-11T02:09:00.195Z,98906.55
2019-02-11T02:14:02.472Z,98919.59
2019-02-11T02:19:04.989Z,98926.89
2019-02-11T02:24:07.315Z,98928.36
2019-02-11T02:29:09.525Z,98938.66
2019-02-11T02:34:11.772Z,98963.92
2019-02-11T02:39:15.031Z,98986.02
2019-02-11T02:44:18.072Z,99001.32
2019-02-11T02:49:20.804Z,99011.67
2019-02-11T02:54:25.010Z,99027.45
2019-02-11T02:59:27.562Z,99047.92
2019-02-11T03:04:30.527Z,99074.50
2019-02-11T03:09:34.805Z,99091.81
2019-02-11T03:14:37.336Z,99094.02
2019-02-11T03:19:39.550Z,99116.83
2019-02-11T03:24:41.842Z,99127.20
2019-02-11T03:29:44.998Z,99143.92
2019-02-11T03:34:48.099Z,99158.98
2019-02-11T03:39:50.347Z,99163.22
2019-02-11T03:44:53.406Z,99195.47
2019-02-11T03:49:56.651Z,99215.66
2019-02-11T03:54:59.584Z,99223.55
2019-02-11T04:00:02.261Z,99237.52
2019-02-11T04:05:06.524Z,99249.56
2019-02-11T04:10:09.368Z,99262.03
2019-02-11T04:15:12.223Z,99290.24
2019-02-11T04:20:14.791Z,99303.84
2019-02-11T04:25:17.110Z,99321.50
2019-02-11T04:30:20.421Z,99333.17
2019-02-11T04:35:23.831Z,99348.97
2019-02-11T04:40:26.257Z,99356.22
2019-02-11T04:45:29.285Z,99372.52
2019-02-11T04:50:32.299Z,99381.24
2019-02-11T04:55:35.376Z,99393.92
2019-02-11T05:00:38.137Z,99406.52
2019-02-11T05:05:40.914Z,99421.91
2019-02-11T05:10:43.703Z,99440.78
2019-02-11T05:15:47.571Z,99447.56
2019-02-11T05:20:50.118Z,99447.40
2019-02-11T05:25:52.353Z,99447.40
2019-02-11T05:30:55.549Z,99472.14
2019-02-11T05:35:58.910Z,99482.09
2019-02-11T05:41:01.605Z,99486.12
2019-02-11T05:46:04.259Z,99504.83
2019-02-11T05:51:06.854Z,99515.48
2019-02-11T05:56:09.963Z,99527.92
2019-02-11T06:01:12.222Z,99543.76
2019-02-11T06:06:15.525Z,99551.95
2019-02-11T06:11:17.832Z,99567.98
2019-02-11T06:16:20.625Z,99577.08
2019-02-11T06:21:23.226Z,99582.80
2019-02-11T06:26:25.401Z,99595.52
2019-02-11T06:31:28.205Z,99608.30
2019-02-11T06:36:30.553Z,99622.41
2019-02-11T06:41:33.049Z,99636.84
2019-02-11T06:46:36.127Z,99641.02
2019-02-11T06:51:38.922Z,99653.34
2019-02-11T06:56:41.244Z,99670.48
2019-02-11T07:01:44.316Z,99678.52
2019-02-11T07:06:46.608Z,99695.09
2019-02-11T07:11:49.577Z,99709.83
2019-02-11T07:16:51.939Z,99716.66
2019-02-11T07:21:54.168Z,99721.70
2019-02-11T07:26:56.842Z,99735.73
2019-02-11T07:32:01.589Z,99740.33
2019-02-11T07:37:04.092Z,99760.43
2019-02-11T07:42:28.619Z,99764.48
2019-02-11T07:47:31.005Z,99786.30
2019-02-11T07:52:33.463Z,99802.20
2019-02-11T07:57:36.072Z,99817.22
2019-02-11T08:02:38.355Z,99825.34
2019-02-11T08:13:11.975Z,99837.22
2019-02-11T08:18:15.143Z,99852.06
2019-02-11T08:23:18.086Z,99846.70
2019-02-11T08:28:20.840Z,99862.39
2019-02-11T08:33:23.639Z,99872.73
2019-02-11T08:38:26.729Z,99881.09
2019-02-11T08:43:29.098Z,99885.14
2019-02-11T08:48:31.828Z,99897.33
2019-02-11T08:53:34.308Z,99903.22
2019-02-11T08:58:36.828Z,99923.34
2019-02-11T09:03:41.272Z,99929.23
2019-02-11T09:08:44.448Z,99948.06
2019-02-11T09:13:46.611Z,99957.64
2019-02-11T09:18:48.799Z,99975.52
2019-02-11T09:23:51.532Z,99987.71
2019-02-11T09:28:53.813Z,100006.17
2019-02-11T09:33:55.962Z,100023.69
2019-02-11T09:38:58.368Z,100035.73
2019-02-11T09:44:00.555Z,100039.80
2019-02-11T09:49:03.363Z,100046.59
2019-02-11T09:54:06.264Z,100052.27
2019-02-11T09:59:09.172Z,100064.53
2019-02-11T10:04:11.342Z,100066.05
2019-02-11T10:09:13.968Z,100083.12
2019-02-11T10:14:16.784Z,100099.92
2019-02-11T10:19:19.100Z,100094.68
2019-02-11T10:24:22.961Z,100097.38
2019-02-11T10:29:25.160Z,100120.00
2019-02-11T10:34:27.306Z,100110.53
2019-02-11T10:39:29.538Z,100117.85
2019-02-11T10:44:32.076Z,100135.14
2019-02-11T10:49:34.351Z,100133.38
2019-02-11T10:54:36.619Z,100141.08
2019-02-11T10:59:39.120Z,100148.74
2019-02-11T11:04:41.653Z,100154.64
2019-02-11T11:09:44.104Z,100161.30
2019-02-11T11:14:46.618Z,100165.55
2019-02-11T11:19:49.525Z,100183.88
2019-02-11T11:24:52.120Z,100184.59
2019-02-11T11:29:55.405Z,100205.41
2019-02-11T11:34:58.908Z,100211.33
2019-02-11T11:40:01.970Z,100217.53
2019-02-11T11:45:08.635Z,100230.67
2019-02-11T11:50:11.795Z,100236.39
2019-02-11T11:55:15.193Z,100246.29
2019-02-11T12:00:23.981Z,100255.62
2019-02-11T12:05:26.598Z,100260.05
2019-02-11T12:10:29.159Z,100275.39
2019-02-11T12:15:31.455Z,100287.03
2019-02-11T12:20:34.465Z,100285.66
2019-02-11T12:25:36.872Z,100313.79
2019-02-11T12:30:39.548Z,100318.81
2019-02-11T12:35:41.720Z,100341.28
2019-02-11T12:40:43.863Z,100348.56
2019-02-11T12:45:46.910Z,100353.50
2019-02-11T12:50:49.385Z,100355.37
2019-02-11T12:55:52.040Z,100369.93
2019-02-11T13:00:54.239Z,100355.44
2019-02-11T13:05:57.657Z,100376.74
2019-02-11T13:11:00.480Z,100382.73
2019-02-11T13:16:03.486Z,100391.67
2019-02-11T13:21:07.042Z,100408.91
2019-02-11T13:26:09.261Z,100419.94
2019-02-11T13:31:11.843Z,100419.20
2019-02-11T13:36:14.396Z,100440.70
2019-02-11T13:41:17.011Z,100457.94
2019-02-11T13:46:19.719Z,100467.17
2019-02-11T13:51:22.000Z,100480.25
2019-02-11T13:56:25.132Z,100499.72
2019-02-11T14:01:28.117Z,100503.41
2019-02-11T14:06:30.573Z,100528.25
2019-02-11T14:11:32.758Z,100531.87
2019-02-11T14:16:34.953Z,100551.23
2019-02-11T14:21:37.428Z,100562.55
2019-02-11T14:26:40.115Z,100567.25
2019-02-11T14:31:42.739Z,100583.56
2019-02-11T14:36:46.102Z,100594.51
2019-02-11T14:41:49.114Z,100600.69
2019-02-11T14:46:52.117Z,100617.03
2019-02-11T14:51:55.149Z,100622.52
2019-02-11T14:56:59.314Z,100648.04
2019-02-11T15:02:02.296Z,100661.81
2019-02-11T15:07:05.400Z,100662.95
2019-02-11T15:12:08.416Z,100677.75
2019-02-11T15:17:10.931Z,100681.83
2019-02-11T15:22:13.437Z,100681.32
2019-02-11T15:27:17.325Z,100705.13
2019-02-11T15:32:20.316Z,100717.05
2019-02-11T15:37:22.447Z,100739.31
2019-02-11T15:42:25.769Z,100756.88
2019-02-11T15:47:29.415Z,100770.48
2019-02-11T15:52:31.706Z,100782.11
2019-02-11T15:57:33.996Z,100791.52
2019-02-11T16:02:36.870Z,100818.30
2019-02-11T16:07:40.644Z,100818.70
2019-02-11T16:12:43.633Z,100828.35
2019-02-11T16:17:46.548Z,100837.19
2019-02-11T16:22:48.845Z,100858.89
2019-02-11T16:27:51.414Z,100879.58
2019-02-11T16:32:53.893Z,100906.62
2019-02-11T16:37:56.539Z,100920.68
2019-02-11T16:42:59.415Z,100940.14
2019-02-11T16:48:01.730Z,100945.28
2019-02-11T16:53:03.925Z,100962.11
2019-02-11T16:58:06.783Z,100973.45
2019-02-11T17:03:14.598Z,100998.41
2019-02-11T17:08:18.904Z,101003.24
2019-02-11T17:13:22.048Z,101016.31
2019-02-11T17:18:24.218Z,101039.37
2019-02-11T17:23:26.531Z,101043.31
2019-02-11T17:28:29.854Z,101054.03
2019-02-11T17:33:32.617Z,101069.27
2019-02-11T17:38:34.902Z,101087.91
2019-02-11T17:43:37.350Z,101091.64
2019-02-11T17:48:39.640Z,101114.63
2019-02-11T17:53:41.970Z,101124.34
2019-02-11T17:58:44.664Z,101137.84
2019-02-11T18:03:47.235Z,101143.66
2019-02-11T18:08:49.821Z,101148.59
2019-02-11T18:13:53.249Z,101159.94
2019-02-11T18:18:55.568Z,101178.19
2019-02-11T18:23:58.040Z,101183.39
2019-02-11T18:29:00.313Z,101198.16
2019-02-11T18:34:02.688Z,101208.25
2019-02-11T18:39:06.640Z,101223.00
2019-02-11T18:44:11.182Z,101233.81
2019-02-11T18:49:13.907Z,101253.73
2019-02-11T18:54:16.995Z,101270.55
2019-02-11T18:59:24.773Z,101281.84
2019-02-11T19:04:24.130Z,101293.94
2019-02-11T19:09:27.253Z,101289.70
2019-02-11T19:14:29.849Z,101304.27
2019-02-11T19:19:32.638Z,101313.41
2019-02-11T19:24:35.940Z,101311.83
2019-02-11T19:29:38.359Z,101327.42
2019-02-11T19:34:41.114Z,101338.33
2019-02-11T19:39:43.279Z,101344.56
2019-02-11T19:44:46.228Z,101348.09
2019-02-11T19:49:51.473Z,101360.33
2019-02-11T19:54:53.545Z,101364.34
2019-02-11T19:59:56.043Z,101371.41
2019-02-11T20:04:58.248Z,101386.17
2019-02-11T20:10:01.027Z,101392.36
2019-02-11T20:15:04.818Z,101401.41
2019-02-11T20:20:09.847Z,101401.41
2019-02-11T20:25:13.597Z,101403.55
2019-02-11T20:30:19.122Z,101414.81
2019-02-11T20:35:21.573Z,101416.98
2019-02-11T20:40:24.373Z,101426.89
2019-02-11T20:45:26.836Z,101428.05
2019-02-11T20:50:29.859Z,101427.80
2019-02-11T20:55:32.346Z,101435.29
2019-02-11T21:00:34.923Z,101442.30
2019-02-11T21:05:37.169Z,101446.36
2019-02-11T21:10:39.342Z,101452.92
2019-02-11T21:15:42.755Z,101462.00
2019-02-11T21:20:45.400Z,101460.49
2019-02-11T21:25:47.913Z,101474.78
2019-02-11T21:30:50.714Z,101469.31
2019-02-11T21:35:52.897Z,101478.04
2019-02-11T21:40:55.108Z,101484.59
2019-02-11T21:45:58.319Z,101494.16
2019-02-11T21:51:01.081Z,101507.13
2019-02-11T21:56:03.684Z,101499.95
2019-02-11T22:01:06.808Z,101509.11
2019-02-11T22:06:10.007Z,101512.20
2019-02-11T22:11:13.092Z,101512.31
2019-02-11T22:16:15.914Z,101518.84
2019-02-11T22:21:18.910Z,101523.27
2019-02-11T22:26:22.205Z,101531.16
2019-02-11T22:31:24.638Z,101522.63
2019-02-11T22:36:27.416Z,101516.61
2019-02-11T22:41:29.638Z,101536.33
2019-02-11T22:46:32.123Z,101535.89
2019-02-11T22:51:35.580Z,101547.83
2019-02-11T22:56:38.183Z,101567.08
2019-02-11T23:01:40.345Z,101573.85
2019-02-11T23:06:42.625Z,101587.19
2019-02-11T23:11:46.114Z,101598.41
2019-02-11T23:16:48.308Z,101608.30
2019-02-11T23:21:50.772Z,101612.56
2019-02-11T23:26:52.933Z,101616.45
2019-02-11T23:31:55.224Z,101624.51
2019-02-11T23:36:58.279Z,101619.75
2019-02-11T23:42:00.758Z,101621.48
2019-02-11T23:47:02.939Z,101632.56
2019-02-11T23:52:06.005Z,101637.69
2019-02-11T23:57:09.635Z,101651.85
